Time;durP1;ratioP1;P1;durP2;ratioP2;P2;SDS_P1;SDS_P2;PMS_P1;PMS_P2;Temp;Humidity;BMP_temperature;BMP_pressure;BME280_temperature;BME280_humidity;BME280_pressure;Samples;Min_cycle;Max_cycle;Signal;HPM_P1;HPM_P2
2022/12/05 00:01:29;;;;;;;2.70;2.50;;;15.80;74.40;;;;;;4976796;28;20031;-72
2022/12/05 00:03:56;;;;;;;2.35;2.13;;;15.80;74.60;;;;;;4959616;28;20038;-72
2022/12/05 00:06:22;;;;;;;2.67;2.47;;;15.80;74.60;;;;;;4959538;28;20018;-72
2022/12/05 00:08:47;;;;;;;2.55;2.35;;;15.80;74.60;;;;;;4987721;28;20473;-72
2022/12/05 00:11:15;;;;;;;2.60;2.40;;;15.80;74.70;;;;;;4996278;28;20026;-72
2022/12/05 00:13:41;;;;;;;3.72;2.55;;;15.80;74.60;;;;;;4978541;28;20021;-72
2022/12/05 00:16:11;;;;;;;2.33;2.13;;;15.80;74.70;;;;;;4978724;28;20463;-72
2022/12/05 00:18:37;;;;;;;2.50;2.30;;;15.80;74.70;;;;;;4970321;28;20033;-72
2022/12/05 00:21:03;;;;;;;2.50;2.30;;;15.80;74.70;;;;;;4943398;28;20031;-72
2022/12/05 00:23:29;;;;;;;2.42;2.15;;;15.80;74.70;;;;;;4959439;28;20023;-72
2022/12/05 00:25:54;;;;;;;2.53;2.33;;;15.80;74.80;;;;;;4959180;28;20397;-72
2022/12/05 00:28:20;;;;;;;4.03;2.30;;;15.80;74.70;;;;;;4958963;28;20042;-72
2022/12/05 00:30:46;;;;;;;2.85;2.50;;;15.80;74.80;;;;;;4959014;28;20102;-72
2022/12/05 00:33:11;;;;;;;2.40;2.20;;;15.80;74.80;;;;;;4976614;28;20113;-72
2022/12/05 00:35:37;;;;;;;2.00;1.90;;;15.80;74.90;;;;;;4976477;28;20027;-72
2022/12/05 00:38:02;;;;;;;2.53;2.33;;;15.80;74.90;;;;;;4976288;28;20109;-72
2022/12/05 00:40:28;;;;;;;3.13;2.28;;;15.80;74.90;;;;;;4976367;28;20038;-72
2022/12/05 00:42:54;;;;;;;2.72;2.53;;;15.80;75.00;;;;;;4958812;28;20035;-72
2022/12/05 00:45:19;;;;;;;3.05;2.40;;;15.80;75.30;;;;;;4976358;28;20620;-72
2022/12/05 00:47:45;;;;;;;2.42;2.22;;;15.80;74.90;;;;;;4958969;28;20026;-72
2022/12/05 00:50:11;;;;;;;2.67;2.47;;;15.80;75.00;;;;;;4976106;28;20370;-72
2022/12/05 00:52:36;;;;;;;2.35;2.15;;;15.80;75.00;;;;;;4958725;28;20036;-72
2022/12/05 00:55:02;;;;;;;2.45;2.25;;;15.80;75.00;;;;;;4976075;28;20023;-72
2022/12/05 00:57:28;;;;;;;2.10;1.90;;;15.80;75.00;;;;;;4975776;28;20478;-72
2022/12/05 00:59:53;;;;;;;2.58;2.35;;;15.80;75.10;;;;;;4976064;28;20105;-72
2022/12/05 01:02:19;;;;;;;2.30;2.10;;;15.80;75.00;;;;;;4975713;28;20042;-72
2022/12/05 01:04:44;;;;;;;2.30;2.10;;;15.80;75.20;;;;;;4975693;28;20396;-72
2022/12/05 01:07:10;;;;;;;2.22;2.03;;;15.80;75.20;;;;;;4974547;28;20493;-72
2022/12/05 01:09:36;;;;;;;2.40;2.20;;;15.80;75.20;;;;;;4993238;28;20034;-72
2022/12/05 01:12:01;;;;;;;3.53;1.95;;;15.80;75.20;;;;;;4994878;28;20022;-72
2022/12/05 01:14:27;;;;;;;2.35;2.15;;;15.80;75.20;;;;;;4995131;28;20097;-72
2022/12/05 01:16:53;;;;;;;1.90;1.80;;;15.80;75.20;;;;;;4994986;28;20766;-72
2022/12/05 01:19:22;;;;;;;3.25;2.22;;;15.80;75.20;;;;;;4974145;28;20022;-72
2022/12/05 01:21:47;;;;;;;2.55;2.35;;;15.80;75.20;;;;;;4974221;28;20038;-72
2022/12/05 01:24:13;;;;;;;2.25;2.05;;;15.80;75.30;;;;;;4974107;28;20397;-72
2022/12/05 01:26:40;;;;;;;2.20;2.00;;;15.80;75.30;;;;;;4973985;28;20023;-72
2022/12/05 01:29:05;;;;;;;2.60;2.40;;;15.80;75.30;;;;;;4974015;28;20150;-72
2022/12/05 01:31:33;;;;;;;2.40;2.20;;;15.80;75.20;;;;;;4973981;28;20097;-72
2022/12/05 01:33:59;;;;;;;2.30;2.10;;;15.80;75.30;;;;;;4975158;28;20106;-72
2022/12/05 01:36:25;;;;;;;2.33;2.13;;;15.80;75.30;;;;;;4974283;28;20023;-72
2022/12/05 01:38:51;;;;;;;2.00;1.90;;;15.80;75.40;;;;;;4973669;28;20589;-72
2022/12/05 01:41:22;;;;;;;3.53;2.03;;;15.80;75.30;;;;;;4975121;28;20027;-72
2022/12/05 01:44:01;;;;;;;2.47;2.28;;;15.80;75.30;;;;;;4973790;28;20031;-72
2022/12/05 01:46:28;;;;;;;2.05;1.95;;;15.70;75.30;;;;;;4973816;28;20026;-72
2022/12/05 01:49:08;;;;;;;2.25;2.00;;;15.70;75.30;;;;;;4973607;28;20114;-72
2022/12/05 01:51:34;;;;;;;2.20;2.00;;;15.80;75.40;;;;;;4974762;28;20058;-72
2022/12/05 01:54:00;;;;;;;2.30;2.10;;;15.70;75.40;;;;;;4973364;28;20050;-72
2022/12/05 01:56:26;;;;;;;2.13;2.00;;;15.80;75.40;;;;;;4973438;28;20497;-72
2022/12/05 01:58:51;;;;;;;2.25;2.05;;;15.80;75.40;;;;;;4973368;28;20477;-72
2022/12/05 02:01:17;;;;;;;2.30;2.10;;;15.70;75.40;;;;;;4973411;28;20027;-72
2022/12/05 02:03:43;;;;;;;2.50;2.00;;;15.80;75.40;;;;;;4973375;28;20107;-72
2022/12/05 02:06:09;;;;;;;2.33;2.13;;;15.80;75.50;;;;;;4973155;28;20026;-72
2022/12/05 02:08:34;;;;;;;3.28;1.98;;;15.80;75.50;;;;;;4976318;28;20026;-72
2022/12/05 02:11:00;;;;;;;2.30;1.80;;;15.80;75.50;;;;;;4976586;28;20096;-72
2022/12/05 02:13:41;;;;;;;2.17;1.98;;;15.80;75.50;;;;;;4976739;28;20073;-72
2022/12/05 02:16:21;;;;;;;2.05;1.95;;;15.70;75.50;;;;;;4993926;28;20030;-72
2022/12/05 02:19:13;;;;;;;2.17;1.95;;;15.80;75.50;;;;;;4966345;28;20030;-72
2022/12/05 02:22:08;;;;;;;2.25;1.90;;;15.70;75.50;;;;;;4959972;28;20477;-72
2022/12/05 02:24:58;;;;;;;2.90;2.33;;;15.70;75.50;;;;;;4972952;28;20105;-72
2022/12/05 02:27:57;;;;;;;2.30;2.00;;;15.70;75.60;;;;;;4974217;28;20398;-72
2022/12/05 02:30:23;;;;;;;2.13;1.92;;;15.80;75.60;;;;;;4974582;28;20022;-72
2022/12/05 02:33:19;;;;;;;2.10;1.90;;;15.70;75.60;;;;;;4956995;28;20085;-72
2022/12/05 02:36:03;;;;;;;3.15;2.05;;;15.70;75.50;;;;;;4957173;28;20370;-72
2022/12/05 02:38:48;;;;;;;2.10;2.00;;;15.80;75.60;;;;;;4974225;28;20507;-72
2022/12/05 02:41:49;;;;;;;2.38;2.17;;;15.70;75.50;;;;;;4956944;28;20093;-72
2022/12/05 02:44:35;;;;;;;1.80;1.70;;;15.70;75.60;;;;;;4957021;28;20569;-72
2022/12/05 02:47:00;;;;;;;2.05;1.58;;;15.70;75.60;;;;;;4956968;28;20031;-72
2022/12/05 02:49:29;;;;;;;2.28;2.08;;;15.70;75.70;;;;;;4956891;28;20397;-72
2022/12/05 02:51:56;;;;;;;2.28;2.10;;;15.70;75.60;;;;;;4956436;28;20030;-72
2022/12/05 02:54:25;;;;;;;2.72;2.30;;;15.80;75.70;;;;;;4956678;28;20106;-72
2022/12/05 02:56:51;;;;;;;2.10;1.90;;;15.70;75.60;;;;;;4956611;28;20023;-72
2022/12/05 02:59:16;;;;;;;2.17;1.98;;;15.70;75.60;;;;;;4956752;28;20019;-72
2022/12/05 03:01:44;;;;;;;2.35;2.15;;;15.70;76.60;;;;;;4956961;28;20026;-72
2022/12/05 03:04:09;;;;;;;1.77;1.67;;;15.70;75.70;;;;;;4956644;28;20023;-72
2022/12/05 03:07:07;;;;;;;1.98;1.88;;;15.70;75.70;;;;;;4956278;28;20054;-73
2022/12/05 03:09:57;;;;;;;2.15;2.05;;;15.70;75.70;;;;;;4964471;28;20133;-73
2022/12/05 03:12:28;;;;;;;2.10;2.00;;;15.70;75.70;;;;;;4977577;28;20472;-73
2022/12/05 03:15:13;;;;;;;2.00;1.90;;;15.80;75.80;;;;;;4975827;28;20041;-73
2022/12/05 03:17:43;;;;;;;2.15;2.00;;;15.70;75.70;;;;;;4977794;28;20045;-73
2022/12/05 03:20:26;;;;;;;3.60;1.98;;;15.70;75.80;;;;;;4956151;28;20445;-73
2022/12/05 03:23:13;;;;;;;1.80;1.70;;;15.70;75.80;;;;;;4972579;28;20039;-73
2022/12/05 03:26:19;;;;;;;2.20;2.00;;;15.70;75.80;;;;;;4972427;28;20033;-73
2022/12/05 03:29:07;;;;;;;2.40;2.20;;;15.70;75.80;;;;;;4973132;28;20497;-73
2022/12/05 03:31:50;;;;;;;2.03;1.92;;;15.70;75.90;;;;;;4975688;28;20501;-73
2022/12/05 03:34:19;;;;;;;2.30;1.88;;;15.70;75.90;;;;;;4976281;28;20031;-73
2022/12/05 03:36:48;;;;;;;2.38;1.85;;;15.70;76.00;;;;;;4975740;28;20015;-73
2022/12/05 03:39:23;;;;;;;2.72;1.73;;;15.70;76.00;;;;;;4976036;28;20019;-72
2022/12/05 03:42:09;;;;;;;6.38;1.80;;;15.70;75.90;;;;;;4977346;28;20120;-72
2022/12/05 03:44:47;;;;;;;1.85;1.75;;;15.70;75.90;;;;;;4976580;28;20050;-72
2022/12/05 03:47:35;;;;;;;1.58;1.48;;;15.70;75.90;;;;;;4976013;28;20042;-72
2022/12/05 03:50:05;;;;;;;2.47;2.10;;;15.70;75.90;;;;;;4975842;28;20031;-72
2022/12/05 03:52:38;;;;;;;2.65;1.88;;;15.70;76.00;;;;;;4984015;28;20029;-72
2022/12/05 03:55:05;;;;;;;2.28;2.00;;;15.70;76.00;;;;;;4978528;28;20477;-72
2022/12/05 03:57:44;;;;;;;1.63;1.52;;;15.70;76.00;;;;;;4978993;28;20112;-72
2022/12/05 04:00:13;;;;;;;2.13;1.70;;;15.70;76.00;;;;;;4994964;28;20061;-72
2022/12/05 04:02:45;;;;;;;2.05;1.88;;;15.70;76.00;;;;;;4996357;28;20023;-73
2022/12/05 04:05:15;;;;;;;1.77;1.67;;;15.70;76.00;;;;;;4979352;28;20034;-73
2022/12/05 04:07:41;;;;;;;2.00;1.90;;;15.70;76.00;;;;;;4994453;28;20047;-73
2022/12/05 04:10:11;;;;;;;2.20;2.00;;;15.70;76.00;;;;;;4996082;28;20027;-73
2022/12/05 04:12:37;;;;;;;1.75;1.65;;;15.70;77.00;;;;;;4979030;28;20021;-73
2022/12/05 04:15:09;;;;;;;1.90;1.80;;;15.70;76.00;;;;;;4978548;28;20026;-73
2022/12/05 04:17:58;;;;;;;1.90;1.77;;;15.70;76.00;;;;;;4978728;28;20109;-73
2022/12/05 04:23:17;;;;;;;1.90;1.80;;;15.70;76.00;;;;;;4948346;28;20089;-73
2022/12/05 04:26:03;;;;;;;2.20;1.70;;;15.70;76.10;;;;;;4976510;28;20034;-73
2022/12/05 04:28:40;;;;;;;1.73;1.63;;;15.70;76.20;;;;;;4969220;28;20039;-73
2022/12/05 04:31:22;;;;;;;1.90;1.80;;;15.70;77.10;;;;;;4958838;28;20018;-73
2022/12/05 04:33:54;;;;;;;1.83;1.73;;;15.70;76.10;;;;;;4943306;28;20022;-73
2022/12/05 04:36:23;;;;;;;1.98;1.85;;;15.70;76.10;;;;;;4943457;28;20529;-73
2022/12/05 04:39:01;;;;;;;2.22;2.08;;;15.70;76.10;;;;;;4943208;28;20023;-73
2022/12/05 04:41:32;;;;;;;1.85;1.73;;;15.70;76.10;;;;;;4958737;28;20038;-73
2022/12/05 04:44:00;;;;;;;1.63;1.52;;;15.70;76.10;;;;;;4943578;28;20030;-72
2022/12/05 04:46:25;;;;;;;1.70;1.60;;;15.70;76.10;;;;;;4976207;28;20033;-72
2022/12/05 04:48:57;;;;;;;2.17;1.98;;;15.70;76.10;;;;;;4975941;28;20031;-72
2022/12/05 04:51:24;;;;;;;1.95;1.80;;;15.70;76.10;;;;;;4942856;28;20114;-72
2022/12/05 04:53:53;;;;;;;2.65;1.77;;;15.70;76.10;;;;;;4959034;28;20023;-72
2022/12/05 04:56:19;;;;;;;1.73;1.63;;;15.70;76.10;;;;;;4926727;28;20432;-72
2022/12/05 04:58:45;;;;;;;1.92;1.83;;;15.70;76.10;;;;;;4942678;28;20071;-72
2022/12/05 05:01:20;;;;;;;2.35;2.15;;;15.70;76.10;;;;;;4942597;28;20027;-72
2022/12/05 05:03:51;;;;;;;1.83;1.73;;;15.70;76.10;;;;;;4958927;28;20073;-72
2022/12/05 05:06:17;;;;;;;1.75;1.60;;;15.70;76.10;;;;;;4958301;28;20038;-72
2022/12/05 05:08:52;;;;;;;2.00;1.88;;;15.70;76.10;;;;;;4985890;28;20027;-72
2022/12/05 05:11:25;;;;;;;2.10;1.90;;;15.70;76.10;;;;;;4995118;28;20030;-72
2022/12/05 05:13:50;;;;;;;2.10;2.00;;;15.70;77.10;;;;;;4977739;28;20022;-72
2022/12/05 05:16:24;;;;;;;1.90;1.80;;;15.70;76.10;;;;;;4977628;28;20023;-72
2022/12/05 05:18:49;;;;;;;2.10;1.98;;;15.70;76.10;;;;;;4977432;28;20023;-72
2022/12/05 05:21:23;;;;;;;2.08;1.92;;;15.70;76.20;;;;;;4977414;28;20036;-72
2022/12/05 05:23:48;;;;;;;2.05;1.80;;;15.70;76.20;;;;;;4978448;28;20049;-72
2022/12/05 05:26:14;;;;;;;2.10;1.90;;;15.70;76.20;;;;;;4977537;28;20465;-72
2022/12/05 05:28:40;;;;;;;2.08;1.98;;;15.70;76.20;;;;;;4977424;28;20112;-72
2022/12/05 05:31:06;;;;;;;2.05;1.85;;;15.70;76.20;;;;;;4977308;28;20026;-72
2022/12/05 05:33:32;;;;;;;1.88;1.77;;;15.70;76.10;;;;;;4977134;28;20033;-72
2022/12/05 05:36:02;;;;;;;1.98;1.88;;;15.70;76.20;;;;;;4977280;28;20033;-72
2022/12/05 05:38:27;;;;;;;1.95;1.85;;;15.70;76.20;;;;;;4977445;28;20105;-72
2022/12/05 05:40:53;;;;;;;2.28;1.85;;;15.70;76.20;;;;;;4994704;28;20113;-72
2022/12/05 05:43:19;;;;;;;1.77;1.67;;;15.70;76.30;;;;;;4994504;28;20032;-72
2022/12/05 05:45:44;;;;;;;1.95;1.75;;;15.70;76.40;;;;;;4994394;28;20133;-72
2022/12/05 05:48:10;;;;;;;1.83;1.70;;;15.70;76.30;;;;;;4994141;28;20503;-73
2022/12/05 05:50:36;;;;;;;2.20;2.00;;;15.70;76.30;;;;;;4977211;28;20026;-72
2022/12/05 05:53:01;;;;;;;1.90;1.80;;;15.70;76.40;;;;;;4994158;28;20101;-72
2022/12/05 05:55:27;;;;;;;1.95;1.85;;;15.70;76.40;;;;;;4976704;28;20046;-72
2022/12/05 05:57:53;;;;;;;2.13;2.00;;;15.70;76.40;;;;;;4994402;28;20500;-73
2022/12/05 06:00:18;;;;;;;2.20;2.00;;;15.70;76.40;;;;;;4976811;28;20542;-72
2022/12/05 06:02:44;;;;;;;2.03;1.83;;;15.70;76.40;;;;;;4977022;28;20030;-72
2022/12/05 06:05:10;;;;;;;1.92;1.83;;;15.70;76.40;;;;;;4994071;28;20034;-72
2022/12/05 06:07:35;;;;;;;2.15;1.95;;;15.70;76.40;;;;;;4991782;28;20046;-72
2022/12/05 06:10:01;;;;;;;2.05;1.90;;;15.70;76.40;;;;;;4993352;28;20038;-72
2022/12/05 06:12:26;;;;;;;5.75;2.00;;;15.70;76.50;;;;;;4993387;28;20038;-72
2022/12/05 06:14:52;;;;;;;1.77;1.60;;;15.70;76.50;;;;;;4993143;28;20034;-72
2022/12/05 06:17:18;;;;;;;2.10;1.90;;;15.70;76.40;;;;;;4976150;28;20030;-72
2022/12/05 06:19:43;;;;;;;1.95;1.80;;;15.80;76.50;;;;;;4976032;28;20403;-72
2022/12/05 06:22:09;;;;;;;2.42;2.22;;;15.70;76.50;;;;;;4992981;28;20073;-72
2022/12/05 06:24:35;;;;;;;3.67;2.20;;;15.70;76.50;;;;;;4993354;28;20074;-72
2022/12/05 06:27:00;;;;;;;2.08;1.90;;;15.70;76.50;;;;;;4976108;28;20022;-72
2022/12/05 06:29:26;;;;;;;2.58;2.05;;;15.70;76.60;;;;;;4992962;28;20030;-72
2022/12/05 06:31:52;;;;;;;2.10;1.77;;;15.70;76.50;;;;;;4993133;28;20030;-72
2022/12/05 06:34:17;;;;;;;2.20;2.00;;;15.70;76.60;;;;;;4993010;28;20049;-72
2022/12/05 06:36:43;;;;;;;2.45;2.08;;;15.70;76.60;;;;;;4993269;28;20026;-72
2022/12/05 06:39:08;;;;;;;2.20;2.00;;;15.70;76.60;;;;;;4975884;28;20038;-72
2022/12/05 06:41:34;;;;;;;2.08;1.88;;;15.70;76.60;;;;;;4993000;28;20092;-72
2022/12/05 06:44:00;;;;;;;1.77;1.67;;;15.70;76.60;;;;;;4992670;28;20027;-72
2022/12/05 06:46:25;;;;;;;2.40;1.80;;;15.70;76.70;;;;;;4993125;28;20026;-72
2022/12/05 06:48:58;;;;;;;2.58;1.92;;;15.70;76.70;;;;;;4975652;28;20481;-72
2022/12/05 06:51:24;;;;;;;2.15;1.92;;;15.70;76.70;;;;;;4975558;28;20046;-72
2022/12/05 06:53:51;;;;;;;2.38;2.10;;;15.70;76.70;;;;;;4975675;28;20026;-72
2022/12/05 06:56:18;;;;;;;2.35;1.90;;;15.70;76.70;;;;;;4992785;28;20031;-72
2022/12/05 06:58:45;;;;;;;2.28;2.08;;;15.70;76.70;;;;;;4975550;28;20062;-72
2022/12/05 07:03:56;;;;;;;2.20;2.00;;;15.70;76.70;;;;;;4978394;28;20090;-72
2022/12/05 07:06:22;;;;;;;2.78;2.00;;;15.70;76.70;;;;;;4977763;28;20053;-72
2022/12/05 07:08:48;;;;;;;3.67;1.85;;;15.70;76.70;;;;;;4995259;28;20107;-72
2022/12/05 07:11:13;;;;;;;4.40;2.00;;;15.70;76.70;;;;;;4995310;28;20022;-72
2022/12/05 07:13:39;;;;;;;2.10;1.90;;;15.70;76.70;;;;;;4995239;28;20023;-72
2022/12/05 07:16:05;;;;;;;2.15;1.75;;;15.70;76.80;;;;;;4995252;28;20481;-72
2022/12/05 07:18:32;;;;;;;3.47;1.63;;;15.70;76.70;;;;;;4995251;28;20481;-72
2022/12/05 07:20:59;;;;;;;1.88;1.77;;;15.70;76.70;;;;;;4995419;28;20050;-72
2022/12/05 07:23:25;;;;;;;2.03;1.83;;;15.70;76.70;;;;;;4977668;28;20437;-72
2022/12/05 07:25:50;;;;;;;4.38;1.88;;;15.70;76.70;;;;;;4977940;28;20026;-72
2022/12/05 07:28:16;;;;;;;2.58;2.22;;;15.70;76.70;;;;;;4994834;28;20030;-72
2022/12/05 07:30:42;;;;;;;2.00;1.90;;;15.70;76.80;;;;;;4995075;28;20030;-72
2022/12/05 07:33:07;;;;;;;2.25;2.05;;;15.70;76.80;;;;;;4995217;28;20465;-72
2022/12/05 07:35:33;;;;;;;2.85;1.90;;;15.70;76.70;;;;;;4994960;28;20026;-72
2022/12/05 07:37:58;;;;;;;1.77;1.67;;;15.70;76.80;;;;;;4995175;28;20035;-72
2022/12/05 07:40:24;;;;;;;2.10;1.92;;;15.70;76.70;;;;;;4995065;28;20033;-72
2022/12/05 07:42:52;;;;;;;2.00;1.80;;;15.70;76.80;;;;;;4994910;28;20113;-72
2022/12/05 07:45:18;;;;;;;2.25;1.80;;;15.70;76.70;;;;;;4961632;28;20472;-72
2022/12/05 07:47:44;;;;;;;4.22;2.08;;;15.70;76.80;;;;;;4994885;28;20022;-72
2022/12/05 07:50:09;;;;;;;1.92;1.83;;;15.70;76.80;;;;;;4995061;28;20029;-72
2022/12/05 07:52:35;;;;;;;3.15;2.10;;;15.70;76.80;;;;;;4977493;28;20031;-72
2022/12/05 07:55:01;;;;;;;2.17;1.98;;;15.70;76.80;;;;;;4977608;28;20033;-72
2022/12/05 07:57:29;;;;;;;3.42;1.98;;;15.70;76.80;;;;;;4994378;28;20026;-72
2022/12/05 07:59:55;;;;;;;1.95;1.83;;;15.70;76.80;;;;;;4977510;28;20022;-72
2022/12/05 08:02:20;;;;;;;2.88;1.63;;;15.70;76.80;;;;;;4977182;28;20385;-72
2022/12/05 08:04:46;;;;;;;2.38;1.92;;;15.70;76.70;;;;;;4994693;28;20041;-72
2022/12/05 08:07:11;;;;;;;2.28;1.95;;;15.70;76.80;;;;;;4950750;28;1283124;-72
2022/12/05 08:09:37;;;;;;;9.75;2.85;;;15.70;76.80;;;;;;4995366;28;20030;-72
2022/12/05 08:12:03;;;;;;;2.10;1.90;;;15.70;76.80;;;;;;4995471;28;20097;-72
2022/12/05 08:14:28;;;;;;;2.10;1.90;;;15.70;76.80;;;;;;4995604;28;20508;-72
2022/12/05 08:16:54;;;;;;;2.33;2.13;;;15.70;76.80;;;;;;4995059;28;20029;-72
2022/12/05 08:19:20;;;;;;;2.00;1.80;;;15.70;76.90;;;;;;4995465;28;20404;-72
2022/12/05 08:21:45;;;;;;;2.42;1.85;;;15.80;76.90;;;;;;4995555;28;20481;-72
2022/12/05 08:24:11;;;;;;;2.03;1.90;;;15.70;76.90;;;;;;4995385;28;20027;-72
2022/12/05 08:26:37;;;;;;;2.55;2.20;;;15.70;76.70;;;;;;4977894;28;20396;-72
2022/12/05 08:29:05;;;;;;;3.25;2.80;;;15.80;76.40;;;;;;4978145;28;20037;-72
2022/12/05 08:31:32;;;;;;;3.20;2.90;;;15.80;76.00;;;;;;4977780;28;20015;-72
2022/12/05 08:33:58;;;;;;;4.00;3.22;;;15.80;75.40;;;;;;4978045;28;20068;-72
2022/12/05 08:36:24;;;;;;;4.88;3.30;;;15.80;75.10;;;;;;4977845;28;20486;-72
2022/12/05 08:38:54;;;;;;;4.18;3.28;;;15.80;74.80;;;;;;4977890;28;20101;-72
2022/12/05 08:41:19;;;;;;;4.85;3.40;;;15.70;75.00;;;;;;4978397;28;20577;-72
2022/12/05 08:43:45;;;;;;;6.03;3.63;;;15.70;74.30;;;;;;4994938;28;20030;-72
2022/12/05 08:46:10;;;;;;;20.55;5.75;;;15.70;74.20;;;;;;4993625;28;20033;-71
2022/12/05 08:48:36;;;;;;;39.35;7.53;;;15.70;74.30;;;;;;4978046;28;20034;-71
2022/12/05 08:51:06;;;;;;;29.23;7.05;;;15.80;74.70;;;;;;4977923;28;20581;-72
2022/12/05 08:53:32;;;;;;;26.40;6.85;;;15.80;75.30;;;;;;4979081;28;20023;-74
2022/12/05 08:56:01;;;;;;;20.63;7.07;;;15.80;75.50;;;;;;4977294;28;20109;-74
2022/12/05 08:58:28;;;;;;;26.60;6.72;;;15.80;75.60;;;;;;4994745;28;20030;-74
2022/12/05 09:00:54;;;;;;;18.88;7.05;;;15.80;75.80;;;;;;4977475;28;20030;-74
2022/12/05 09:03:19;;;;;;;30.02;7.15;;;15.80;75.90;;;;;;4994605;28;20037;-75
2022/12/05 09:05:45;;;;;;;26.67;6.65;;;15.80;75.90;;;;;;4977341;28;20034;-74
2022/12/05 09:08:11;;;;;;;27.13;7.10;;;15.80;75.90;;;;;;4994056;28;20053;-73
2022/12/05 09:10:37;;;;;;;18.58;6.55;;;15.80;75.90;;;;;;4994336;28;20065;-73
2022/12/05 09:13:02;;;;;;;18.30;6.03;;;15.80;75.80;;;;;;4994696;28;20075;-74
2022/12/05 09:15:28;;;;;;;19.75;7.43;;;15.80;75.70;;;;;;4994560;28;20125;-73
2022/12/05 09:17:53;;;;;;;17.38;6.60;;;15.80;75.70;;;;;;4977039;28;20392;-73
2022/12/05 09:20:19;;;;;;;16.80;6.07;;;15.80;75.70;;;;;;4994543;28;20374;-74
2022/12/05 09:22:45;;;;;;;18.58;7.15;;;15.80;75.70;;;;;;4994017;28;20473;-73
2022/12/05 09:25:10;;;;;;;20.52;7.07;;;15.80;75.60;;;;;;4994195;28;20053;-73
2022/12/05 09:27:36;;;;;;;26.85;7.93;;;15.80;75.60;;;;;;4976113;28;20062;-73
2022/12/05 09:30:02;;;;;;;18.65;5.65;;;15.80;75.50;;;;;;4994205;28;20081;-73
2022/12/05 09:32:28;;;;;;;16.70;6.82;;;15.80;75.50;;;;;;4994248;28;20018;-73
2022/12/05 09:34:54;;;;;;;14.48;6.32;;;15.80;75.50;;;;;;4994094;28;20552;-73
2022/12/05 09:37:19;;;;;;;14.32;6.22;;;15.80;75.50;;;;;;4994093;28;20026;-73
2022/12/05 09:39:45;;;;;;;20.52;6.00;;;15.80;75.30;;;;;;4993979;28;20419;-73
2022/12/05 09:42:22;;;;;;;14.85;6.78;;;15.80;75.10;;;;;;4993936;28;20488;-73
2022/12/05 09:45:21;;;;;;;15.85;6.15;;;15.80;75.00;;;;;;4993831;28;20062;-74
2022/12/05 09:47:51;;;;;;;14.45;5.88;;;15.80;75.00;;;;;;4993541;28;20129;-73
2022/12/05 09:50:18;;;;;;;12.63;5.68;;;15.80;74.90;;;;;;4976556;28;20026;-73
2022/12/05 09:53:12;;;;;;;14.88;5.97;;;15.80;74.70;;;;;;4993371;28;20555;-73
2022/12/05 09:55:44;;;;;;;10.85;5.60;;;15.80;74.70;;;;;;4976307;28;20033;-73
2022/12/05 09:58:37;;;;;;;15.60;6.03;;;15.80;74.70;;;;;;4976243;28;20073;-73
2022/12/05 10:01:30;;;;;;;13.40;5.65;;;15.80;74.60;;;;;;4979018;28;20081;-74
2022/12/05 10:04:30;;;;;;;9.52;4.95;;;15.80;74.60;;;;;;4993244;28;20512;-74
2022/12/05 10:07:24;;;;;;;13.32;5.38;;;15.80;74.60;;;;;;4993161;28;20097;-73
2022/12/05 10:10:28;;;;;;;12.73;6.07;;;15.80;74.60;;;;;;4956746;28;20034;-73
2022/12/05 10:13:24;;;;;;;10.18;5.55;;;15.80;74.70;;;;;;4956808;28;20455;-74
2022/12/05 10:15:52;;;;;;;11.20;6.07;;;15.80;74.60;;;;;;4956802;28;20066;-73
2022/12/05 10:18:50;;;;;;;13.35;6.28;;;15.80;74.60;;;;;;4946835;28;20089;-73
2022/12/05 10:21:32;;;;;;;11.95;6.43;;;15.80;74.60;;;;;;4975978;28;20014;-74
2022/12/05 10:24:11;;;;;;;15.82;5.25;;;15.80;74.60;;;;;;4975892;28;20081;-74
2022/12/05 10:26:45;;;;;;;11.32;5.80;;;15.80;74.60;;;;;;4975809;28;20022;-74
2022/12/05 10:29:24;;;;;;;11.68;5.38;;;15.80;74.50;;;;;;4975946;28;20023;-74
2022/12/05 10:31:50;;;;;;;9.90;5.03;;;15.80;74.50;;;;;;4976593;28;20019;-75
2022/12/05 10:34:34;;;;;;;8.20;5.05;;;15.80;74.40;;;;;;4975672;28;20022;-74
2022/12/05 10:37:15;;;;;;;9.43;5.30;;;15.80;74.40;;;;;;4976043;28;20027;-73
2022/12/05 10:39:41;;;;;;;12.13;5.35;;;15.80;74.30;;;;;;4993152;28;20037;-73
2022/12/05 10:42:11;;;;;;;7.95;4.78;;;15.80;74.30;;;;;;4975849;28;20030;-74
2022/12/05 10:44:37;;;;;;;8.70;4.53;;;15.80;74.30;;;;;;4976078;28;20022;-73
2022/12/05 10:47:02;;;;;;;8.80;4.63;;;15.80;74.20;;;;;;4975804;28;20030;-74
2022/12/05 10:49:28;;;;;;;11.20;4.85;;;15.80;74.20;;;;;;4975594;28;20022;-74
2022/12/05 10:51:53;;;;;;;8.02;4.82;;;15.80;74.20;;;;;;4975399;28;20038;-74
2022/12/05 10:54:21;;;;;;;8.50;4.60;;;15.80;75.20;;;;;;4993105;28;20030;-74
2022/12/05 10:56:48;;;;;;;8.13;5.10;;;15.80;74.10;;;;;;4975355;28;20392;-74
2022/12/05 10:59:18;;;;;;;7.18;3.97;;;15.80;74.10;;;;;;4975499;28;20026;-73
2022/12/05 11:01:54;;;;;;;6.55;4.57;;;15.80;74.10;;;;;;4975754;28;20057;-74
2022/12/05 11:04:47;;;;;;;7.00;5.07;;;15.80;74.00;;;;;;4976542;28;20476;-74
2022/12/05 11:07:42;;;;;;;9.18;5.10;;;15.70;74.00;;;;;;4976944;28;20104;-74
2022/12/05 11:10:18;;;;;;;7.60;4.47;;;15.70;74.00;;;;;;4971996;28;20114;-74
2022/12/05 11:12:44;;;;;;;6.65;4.03;;;15.70;73.90;;;;;;4991497;28;20054;-75
2022/12/05 11:15:20;;;;;;;5.70;4.15;;;15.70;73.90;;;;;;4975417;28;20100;-74
2022/12/05 11:17:46;;;;;;;6.72;4.20;;;15.70;73.80;;;;;;4993163;28;20049;-75
2022/12/05 11:20:18;;;;;;;7.30;4.70;;;15.70;73.80;;;;;;4975419;28;20397;-75
2022/12/05 11:23:14;;;;;;;11.35;5.38;;;15.70;73.80;;;;;;4992630;28;20124;-75
2022/12/05 11:25:40;;;;;;;7.53;4.28;;;15.80;73.80;;;;;;4977127;28;20026;-75
2022/12/05 11:28:22;;;;;;;8.50;4.88;;;15.70;73.80;;;;;;4992327;28;20377;-74
2022/12/05 11:31:13;;;;;;;6.45;3.78;;;15.70;73.80;;;;;;4975235;28;20049;-75
2022/12/05 11:33:38;;;;;;;7.60;4.35;;;15.70;73.70;;;;;;4977162;28;20030;-75
2022/12/05 11:36:17;;;;;;;6.28;4.10;;;15.70;73.80;;;;;;4975040;28;20057;-75
2022/12/05 11:38:43;;;;;;;5.00;4.03;;;15.80;73.90;;;;;;4975045;28;20033;-75
2022/12/05 11:41:14;;;;;;;6.28;4.15;;;15.80;73.90;;;;;;4975332;28;20105;-75
2022/12/05 11:44:07;;;;;;;6.40;3.95;;;15.80;73.90;;;;;;4992529;28;20022;-75
2022/12/05 11:46:35;;;;;;;6.18;4.15;;;15.80;73.90;;;;;;4992375;28;20030;-75
2022/12/05 11:49:33;;;;;;;7.88;3.83;;;15.80;74.00;;;;;;4992150;28;20026;-74
2022/12/05 11:52:02;;;;;;;8.85;4.20;;;15.70;73.90;;;;;;4961355;28;20162;-75
2022/12/05 11:54:54;;;;;;;8.23;4.30;;;15.80;74.00;;;;;;4978688;28;20400;-75
2022/12/05 11:57:19;;;;;;;6.75;4.07;;;15.80;73.90;;;;;;4978659;28;20033;-75
2022/12/05 11:59:57;;;;;;;7.10;4.15;;;15.70;73.80;;;;;;4995797;28;20019;-74
2022/12/05 12:02:56;;;;;;;6.07;3.80;;;15.80;73.80;;;;;;4995960;28;20033;-75
2022/12/05 12:05:24;;;;;;;7.38;3.97;;;15.80;73.90;;;;;;4995682;28;20054;-75
2022/12/05 12:08:02;;;;;;;6.57;3.40;;;15.80;73.90;;;;;;4995377;28;20042;-75
2022/12/05 12:10:37;;;;;;;8.93;3.60;;;15.80;73.80;;;;;;4979116;28;20129;-75
2022/12/05 12:13:39;;;;;;;4.93;3.83;;;15.80;73.80;;;;;;4995683;28;20409;-75
2022/12/05 12:16:36;;;;;;;5.53;4.07;;;15.80;73.90;;;;;;4995585;28;20502;-75
2022/12/05 12:19:09;;;;;;;5.13;3.30;;;15.90;74.00;;;;;;4942634;29;20044;-75
2022/12/05 12:21:44;;;;;;;;;;;15.90;74.00;;;;;;4935964;29;20032;-75
2022/12/05 12:24:15;;;;;;;5.00;3.05;;;15.80;73.90;;;;;;4919509;29;20428;-75
2022/12/05 12:26:56;;;;;;;7.13;3.30;;;15.90;73.90;;;;;;4919636;29;20118;-75
2022/12/05 12:29:40;;;;;;;4.75;3.30;;;15.90;73.80;;;;;;4935283;29;20040;-76
2022/12/05 12:32:24;;;;;;;4.38;3.88;;;15.90;73.80;;;;;;4935121;29;20038;-75
2022/12/05 12:34:55;;;;;;;5.78;3.50;;;15.90;73.70;;;;;;4934989;29;20032;-75
2022/12/05 12:37:26;;;;;;;3.50;3.20;;;15.90;73.60;;;;;;4919359;29;20564;-75
2022/12/05 12:40:14;;;;;;;3.88;2.95;;;15.90;73.60;;;;;;4919503;29;20023;-75
2022/12/05 12:43:03;;;;;;;3.85;3.38;;;15.90;73.50;;;;;;4905764;29;20184;-75
2022/12/05 12:45:36;;;;;;;3.67;2.88;;;15.90;73.60;;;;;;4921595;29;20059;-75
2022/12/05 12:48:26;;;;;;;3.42;3.13;;;15.90;73.70;;;;;;4919629;29;20063;-75
2022/12/05 12:50:53;;;;;;;5.30;3.63;;;15.90;73.60;;;;;;4934862;29;20115;-75
2022/12/05 12:53:43;;;;;;;3.78;2.95;;;15.80;73.50;;;;;;4919176;29;20114;-75
2022/12/05 12:56:47;;;;;;;4.18;3.35;;;15.90;73.60;;;;;;4974547;28;20436;-75
2022/12/05 12:59:16;;;;;;;4.97;3.60;;;15.80;73.40;;;;;;4994777;28;20030;-75
2022/12/05 13:01:55;;;;;;;5.65;4.45;;;15.90;73.60;;;;;;4994721;28;20034;-75
2022/12/05 13:04:33;;;;;;;5.72;4.65;;;15.90;73.70;;;;;;4976490;28;20037;-75
2022/12/05 13:07:09;;;;;;;5.93;3.95;;;15.90;73.90;;;;;;4994412;28;20053;-75
2022/12/05 13:09:39;;;;;;;7.20;4.45;;;15.90;74.00;;;;;;4962777;28;20030;-75
2022/12/05 13:12:16;;;;;;;5.50;4.70;;;15.90;74.10;;;;;;4977081;28;20018;-74
2022/12/05 13:14:52;;;;;;;5.68;4.88;;;15.90;74.20;;;;;;4977170;28;20019;-74